Time;durP1;ratioP1;P1;durP2;ratioP2;P2;SDS_P1;SDS_P2;PMS_P1;PMS_P2;Temp;Humidity;BMP_temperature;BMP_pressure;BME280_temperature;BME280_humidity;BME280_pressure;Samples;Min_cycle;Max_cycle;Signal;HPM_P1;HPM_P2
2022/10/14 00:01:44;;;;;;;14.63;8.25;;;;;;;10.90;100.00;100679.66;5199637;28;20026;-75
2022/10/14 00:04:14;;;;;;;17.58;8.60;;;;;;;10.92;100.00;100684.81;5205203;28;20557;-75
2022/10/14 00:06:44;;;;;;;17.77;8.82;;;;;;;10.93;100.00;100681.31;5201347;28;20113;-74
2022/10/14 00:09:15;;;;;;;19.77;9.20;;;;;;;10.91;100.00;100683.13;5201570;28;20159;-74
2022/10/14 00:11:45;;;;;;;17.50;8.40;;;;;;;10.89;100.00;100677.09;5183391;28;20026;-74
2022/10/14 00:14:18;;;;;;;17.23;8.82;;;;;;;10.91;100.00;100681.38;5201610;28;20030;-74
2022/10/14 00:16:52;;;;;;;13.95;8.13;;;;;;;10.97;100.00;100664.59;5200239;28;20040;-74
2022/10/14 00:19:22;;;;;;;16.10;8.85;;;;;;;11.00;100.00;100669.75;5207382;28;20016;-74
2022/10/14 00:21:53;;;;;;;15.45;7.60;;;;;;;11.02;100.00;100668.75;5200776;28;20482;-74
2022/10/14 00:24:23;;;;;;;17.63;8.82;;;;;;;11.06;100.00;100671.22;5201530;28;20037;-74
2022/10/14 00:26:53;;;;;;;17.38;8.95;;;;;;;11.07;100.00;100675.53;5201156;28;20052;-74
2022/10/14 00:29:24;;;;;;;18.98;8.80;;;;;;;11.08;100.00;100679.00;5200769;28;20061;-75
2022/10/14 00:31:54;;;;;;;16.92;8.80;;;;;;;11.08;100.00;100674.63;5191791;28;20032;-74
2022/10/14 00:34:24;;;;;;;14.70;7.97;;;;;;;11.11;100.00;100682.34;5181780;28;20029;-74
2022/10/14 00:36:55;;;;;;;12.30;7.50;;;;;;;11.15;100.00;100665.66;5199402;28;20037;-74
2022/10/14 00:39:25;;;;;;;14.18;9.02;;;;;;;11.16;100.00;100664.75;5200405;28;20052;-75
2022/10/14 00:41:55;;;;;;;18.65;8.88;;;;;;;11.19;100.00;100674.22;5199994;28;20040;-74
2022/10/14 00:44:26;;;;;;;15.82;8.43;;;;;;;11.15;100.00;100668.28;5199882;28;20561;-74
2022/10/14 00:46:56;;;;;;;14.02;7.90;;;;;;;11.17;100.00;100671.69;5200504;28;20083;-74
2022/10/14 00:49:32;;;;;;;16.10;8.45;;;;;;;11.19;100.00;100676.84;5199497;28;20458;-74
2022/10/14 00:52:12;;;;;;;12.82;7.47;;;;;;;11.24;100.00;100669.69;5200545;28;20399;-74
2022/10/14 00:59:58;;;;;;;14.13;9.07;;;;;;;11.29;100.00;100679.06;5235080;28;20406;-77
2022/10/14 01:02:29;;;;;;;18.92;9.18;;;;;;;11.25;100.00;100666.19;5240687;28;20040;-77
2022/10/14 01:05:00;;;;;;;18.85;9.20;;;;;;;11.24;100.00;100664.47;5233060;28;20028;-77
2022/10/14 01:07:56;;;;;;;18.42;9.98;;;;;;;11.23;100.00;100665.34;5211186;28;20029;-78
2022/10/14 01:10:30;;;;;;;19.45;9.40;;;;;;;11.26;100.00;100660.88;5213263;28;20394;-77
2022/10/14 01:13:13;;;;;;;17.45;7.60;;;;;;;11.23;100.00;100663.59;5210929;28;20261;-77
2022/10/14 01:16:11;;;;;;;15.05;8.75;;;;;;;11.20;100.00;100661.09;5208571;28;20406;-77
2022/10/14 01:18:50;;;;;;;17.58;8.15;;;;;;;11.26;100.00;100658.25;5218739;28;20031;-77
2022/10/14 01:21:21;;;;;;;16.90;7.63;;;;;;;11.28;100.00;100659.03;5215354;28;20037;-77
2022/10/14 01:24:13;;;;;;;17.98;7.68;;;;;;;11.27;100.00;100659.13;5211934;28;20405;-77
2022/10/14 01:26:58;;;;;;;16.83;8.32;;;;;;;11.18;100.00;100652.47;5212498;28;20033;-77
2022/10/14 01:29:56;;;;;;;13.63;7.83;;;;;;;11.22;100.00;100656.66;5212954;28;20086;-77
2022/10/14 01:32:49;;;;;;;19.23;8.90;;;;;;;11.20;100.00;100655.88;5217143;28;20078;-77
2022/10/14 01:35:25;;;;;;;16.52;9.45;;;;;;;11.12;100.00;100654.44;5214845;28;20100;-78
2022/10/14 01:38:18;;;;;;;17.13;8.70;;;;;;;11.12;100.00;100644.81;5214347;28;20478;-77
2022/10/14 01:40:59;;;;;;;19.33;9.40;;;;;;;11.08;100.00;100642.41;5213507;28;20379;-78
2022/10/14 01:43:31;;;;;;;17.63;9.55;;;;;;;11.14;100.00;100647.41;5226257;28;20025;-77
2022/10/14 01:46:04;;;;;;;15.23;9.73;;;;;;;11.13;100.00;100650.91;5210959;28;20036;-77
2022/10/14 01:48:40;;;;;;;18.58;9.30;;;;;;;11.16;100.00;100645.56;5210835;28;20026;-78
2022/10/14 01:51:15;;;;;;;19.20;10.10;;;;;;;11.16;100.00;100641.22;5191731;28;20037;-77
2022/10/14 01:53:53;;;;;;;16.50;9.85;;;;;;;11.17;100.00;100637.69;5212633;28;20017;-77
2022/10/14 01:56:28;;;;;;;19.55;11.10;;;;;;;11.27;100.00;100638.19;5212431;28;20083;-77
2022/10/14 01:59:00;;;;;;;18.65;9.82;;;;;;;11.31;100.00;100643.22;5214457;28;20029;-77
2022/10/14 02:01:30;;;;;;;16.92;10.50;;;;;;;11.40;100.00;100636.78;5214750;28;20037;-77
2022/10/14 02:04:00;;;;;;;20.27;11.02;;;;;;;11.43;100.00;100637.53;5215526;28;20025;-77
2022/10/14 02:06:38;;;;;;;23.98;12.80;;;;;;;11.46;100.00;100631.34;5210410;28;20125;-78
2022/10/14 02:09:32;;;;;;;22.73;11.43;;;;;;;11.46;100.00;100632.19;5208748;28;20613;-77
2022/10/14 02:12:38;;;;;;;25.17;12.43;;;;;;;11.48;100.00;100627.75;5212662;28;20033;-78
2022/10/14 02:15:21;;;;;;;21.10;11.90;;;;;;;11.47;100.00;100640.91;5211881;28;20025;-77
2022/10/14 02:18:22;;;;;;;22.83;11.07;;;;;;;11.47;100.00;100630.44;5212146;28;20046;-77
2022/10/14 02:21:06;;;;;;;23.10;12.73;;;;;;;11.48;100.00;100626.91;5212987;28;20025;-78
2022/10/14 02:23:43;;;;;;;24.08;13.63;;;;;;;11.51;100.00;100626.78;5211041;28;20029;-78
2022/10/14 02:26:15;;;;;;;24.20;13.88;;;;;;;11.55;100.00;100624.00;5211320;28;20368;-77
2022/10/14 02:28:46;;;;;;;25.45;14.38;;;;;;;11.59;100.00;100625.59;5214664;28;20033;-78
2022/10/14 02:31:18;;;;;;;24.33;14.40;;;;;;;11.63;100.00;100627.19;5214754;28;20036;-78
2022/10/14 02:33:52;;;;;;;26.38;15.35;;;;;;;11.64;100.00;100628.88;5216037;28;20494;-77
2022/10/14 02:36:24;;;;;;;28.80;15.05;;;;;;;11.67;100.00;100620.06;5213549;28;20494;-78
2022/10/14 02:38:58;;;;;;;30.25;15.57;;;;;;;11.66;100.00;100616.63;5214778;28;20040;-77
2022/10/14 02:41:34;;;;;;;30.40;15.73;;;;;;;11.67;100.00;100618.31;5214116;28;20064;-77
2022/10/14 02:44:05;;;;;;;25.90;14.50;;;;;;;11.68;100.00;100619.16;5213801;28;20044;-78
2022/10/14 02:46:39;;;;;;;27.73;15.40;;;;;;;11.72;100.00;100618.97;5212646;28;20043;-78
2022/10/14 02:49:09;;;;;;;29.90;16.13;;;;;;;11.72;100.00;100608.50;5211197;28;20071;-77
2022/10/14 02:51:39;;;;;;;30.77;14.82;;;;;;;11.74;100.00;100606.69;5215959;28;20300;-77
2022/10/14 02:54:10;;;;;;;25.90;15.52;;;;;;;11.75;100.00;100604.94;5212796;28;20029;-77
2022/10/14 02:56:40;;;;;;;25.60;14.43;;;;;;;11.74;100.00;100609.31;5236017;28;20064;-78
2022/10/14 02:59:11;;;;;;;26.95;14.02;;;;;;;11.76;100.00;100601.41;5212713;28;20123;-78
2022/10/14 03:01:42;;;;;;;21.08;13.32;;;;;;;11.74;100.00;100604.06;5219837;28;20498;-78
2022/10/14 03:04:12;;;;;;;22.55;12.52;;;;;;;11.76;100.00;100602.22;5219551;28;20033;-77
2022/10/14 03:06:42;;;;;;;26.85;14.05;;;;;;;11.74;100.00;100595.34;5218180;28;20111;-77
2022/10/14 03:09:13;;;;;;;28.10;13.55;;;;;;;11.73;100.00;100599.75;5212327;28;20025;-77
2022/10/14 03:11:43;;;;;;;23.65;13.10;;;;;;;11.72;100.00;100600.66;5215967;28;20409;-77
2022/10/14 03:14:13;;;;;;;27.02;13.80;;;;;;;11.72;100.00;100595.41;5212863;28;20078;-78
2022/10/14 03:16:43;;;;;;;24.25;13.45;;;;;;;11.78;100.00;100592.53;5216362;28;20482;-77
2022/10/14 03:19:14;;;;;;;24.33;14.25;;;;;;;11.73;100.00;100594.50;5212291;28;20037;-77
2022/10/14 03:21:44;;;;;;;26.45;13.63;;;;;;;11.78;100.00;100594.34;5216671;28;20498;-78
2022/10/14 03:24:15;;;;;;;22.92;13.15;;;;;;;11.76;100.00;100590.94;5214239;28;20433;-77
2022/10/14 03:26:45;;;;;;;25.33;14.43;;;;;;;11.74;100.00;100584.88;5212607;28;20248;-78
2022/10/14 03:29:15;;;;;;;28.98;14.38;;;;;;;11.74;100.00;100590.97;5213974;28;20032;-77
2022/10/14 03:31:45;;;;;;;28.13;14.32;;;;;;;11.71;100.00;100588.47;5220146;28;20060;-78
2022/10/14 03:34:16;;;;;;;28.02;13.98;;;;;;;11.79;100.00;100585.56;5220016;28;20072;-78
2022/10/14 03:36:46;;;;;;;24.35;13.40;;;;;;;11.77;100.00;100595.25;5220634;28;20035;-77
2022/10/14 03:39:16;;;;;;;26.05;13.90;;;;;;;11.72;100.00;100586.69;5214406;28;20064;-77
2022/10/14 03:41:47;;;;;;;23.15;12.68;;;;;;;11.79;100.00;100585.56;5216352;28;20111;-78
2022/10/14 03:44:17;;;;;;;26.92;13.38;;;;;;;11.76;100.00;100583.91;5210856;28;20044;-78
2022/10/14 03:46:48;;;;;;;23.23;13.18;;;;;;;11.72;100.00;100584.09;5214106;28;20032;-78
2022/10/14 03:49:18;;;;;;;22.35;12.82;;;;;;;11.73;100.00;100584.03;5211239;28;20383;-78
2022/10/14 03:51:48;;;;;;;24.85;12.63;;;;;;;11.75;100.00;100584.81;5215754;28;20063;-77
2022/10/14 03:54:18;;;;;;;24.52;13.00;;;;;;;11.68;100.00;100578.13;5212206;28;20085;-77
2022/10/14 03:56:49;;;;;;;24.42;13.55;;;;;;;11.66;100.00;100581.72;5215533;28;20108;-77
2022/10/14 03:59:20;;;;;;;24.75;13.50;;;;;;;11.62;100.00;100578.34;5212402;28;20494;-77
2022/10/14 04:01:50;;;;;;;25.80;13.48;;;;;;;11.61;100.00;100579.28;5218305;28;20111;-77
2022/10/14 04:04:20;;;;;;;20.73;12.10;;;;;;;11.61;100.00;100570.59;5219243;28;20025;-77
2022/10/14 04:06:50;;;;;;;24.08;13.10;;;;;;;11.63;100.00;100580.06;5217960;28;20082;-77
2022/10/14 04:09:21;;;;;;;27.05;14.02;;;;;;;11.59;100.00;100578.50;5214275;28;20721;-78
2022/10/14 04:11:51;;;;;;;24.13;13.43;;;;;;;11.63;100.00;100577.44;5218215;28;20433;-78
2022/10/14 04:14:23;;;;;;;21.23;13.15;;;;;;;11.65;100.00;100573.00;5214617;28;20021;-78
2022/10/14 04:16:53;;;;;;;23.38;13.20;;;;;;;11.63;100.00;100579.22;5213089;28;20025;-78
2022/10/14 04:19:23;;;;;;;19.98;12.88;;;;;;;11.63;100.00;100577.44;5212218;28;20033;-77
2022/10/14 04:21:53;;;;;;;22.73;13.07;;;;;;;11.65;100.00;100572.16;5210921;28;20494;-78
2022/10/14 04:24:24;;;;;;;28.45;13.43;;;;;;;11.63;100.00;100571.38;5209909;28;20052;-77
2022/10/14 04:26:54;;;;;;;22.52;13.05;;;;;;;11.71;100.00;100571.91;5212697;28;20466;-77
2022/10/14 04:29:25;;;;;;;22.92;13.65;;;;;;;11.71;100.00;100566.66;5212647;28;20051;-78
2022/10/14 04:31:55;;;;;;;22.25;13.77;;;;;;;11.66;100.00;100569.50;5217771;28;20482;-77
2022/10/14 04:34:25;;;;;;;24.70;13.48;;;;;;;11.63;100.00;100560.91;5219277;28;20039;-78
2022/10/14 04:36:56;;;;;;;22.92;13.57;;;;;;;11.63;100.00;100569.59;5217167;28;20082;-78
2022/10/14 04:39:26;;;;;;;25.83;13.52;;;;;;;11.64;100.00;100562.59;5214870;28;20036;-77
2022/10/14 04:41:56;;;;;;;26.23;13.73;;;;;;;11.62;100.00;100562.66;5213483;28;20108;-78
2022/10/14 04:44:27;;;;;;;17.98;12.30;;;;;;;11.68;100.00;100557.19;5212463;28;20484;-77
2022/10/14 04:46:57;;;;;;;20.23;12.65;;;;;;;11.69;100.00;100563.25;5213436;28;20025;-77
2022/10/14 04:49:27;;;;;;;23.27;14.10;;;;;;;11.68;100.00;100562.44;5228560;28;20038;-77
2022/10/14 04:51:57;;;;;;;25.08;14.00;;;;;;;11.69;100.00;100563.25;5213851;28;20220;-77
2022/10/14 04:54:28;;;;;;;20.38;12.45;;;;;;;11.73;100.00;100560.47;5212744;28;20040;-78
2022/10/14 04:56:58;;;;;;;22.13;13.13;;;;;;;11.76;100.00;100559.50;5209687;28;20029;-77
2022/10/14 04:59:28;;;;;;;23.73;13.80;;;;;;;11.77;100.00;100558.59;5211120;28;20032;-77
2022/10/14 05:01:59;;;;;;;22.52;12.85;;;;;;;11.81;100.00;100554.94;5218628;28;20448;-77
2022/10/14 05:04:29;;;;;;;21.60;12.43;;;;;;;11.82;100.00;100554.84;5217793;28;20630;-78
2022/10/14 05:06:59;;;;;;;28.30;14.27;;;;;;;11.78;100.00;100553.28;5216922;28;20033;-77
2022/10/14 05:09:29;;;;;;;23.98;14.15;;;;;;;11.81;100.00;100557.53;5214040;28;20063;-77
2022/10/14 05:12:00;;;;;;;25.60;13.82;;;;;;;11.78;100.00;100558.50;5213227;28;20036;-77
2022/10/14 05:14:30;;;;;;;19.98;12.63;;;;;;;11.82;100.00;100554.00;5212823;28;20036;-77
2022/10/14 05:17:00;;;;;;;21.90;12.68;;;;;;;11.80;100.00;100556.69;5212162;28;20037;-77
2022/10/14 05:19:31;;;;;;;21.85;13.05;;;;;;;11.80;100.00;100555.84;5209918;28;20418;-78
2022/10/14 05:22:01;;;;;;;21.73;12.95;;;;;;;11.77;100.00;100548.94;5219461;28;20024;-77
2022/10/14 05:24:31;;;;;;;28.73;14.13;;;;;;;11.78;100.00;100542.81;5213641;28;20095;-77
2022/10/14 05:27:02;;;;;;;26.45;14.38;;;;;;;11.66;100.00;100535.47;5210451;28;20025;-78
2022/10/14 05:29:32;;;;;;;24.63;13.68;;;;;;;11.74;100.00;100529.88;5214503;28;20359;-77
2022/10/14 05:32:02;;;;;;;21.48;13.13;;;;;;;11.83;100.00;100532.16;5210674;28;20029;-77
2022/10/14 05:34:33;;;;;;;20.48;13.30;;;;;;;11.87;100.00;100541.56;5214587;28;20033;-77
2022/10/14 05:37:04;;;;;;;24.95;13.85;;;;;;;11.81;100.00;100536.59;5219311;28;20025;-77
2022/10/14 05:39:34;;;;;;;21.27;13.38;;;;;;;11.84;100.00;100546.94;5213929;28;20102;-77
2022/10/14 05:42:04;;;;;;;20.35;12.45;;;;;;;11.83;100.00;100546.09;5209298;28;20033;-78
2022/10/14 05:44:35;;;;;;;18.60;11.23;;;;;;;11.89;100.00;100550.22;5235284;28;20103;-77
2022/10/14 05:47:05;;;;;;;23.05;13.32;;;;;;;11.85;100.00;100559.13;5216595;28;20676;-77
2022/10/14 05:49:35;;;;;;;21.15;12.10;;;;;;;11.86;100.00;100556.44;5209312;28;20128;-77
2022/10/14 05:52:06;;;;;;;18.88;12.43;;;;;;;11.87;100.00;100552.03;5217801;28;20037;-78
2022/10/14 05:54:36;;;;;;;20.42;12.32;;;;;;;11.89;100.00;100551.06;5212250;28;20130;-77
2022/10/14 05:57:06;;;;;;;17.60;11.18;;;;;;;11.93;100.00;100552.66;5208193;28;20025;-77
2022/10/14 05:59:36;;;;;;;17.77;10.77;;;;;;;11.96;100.00;100549.91;5210300;28;20029;-77
2022/10/14 06:02:08;;;;;;;17.73;10.90;;;;;;;12.00;100.00;100555.88;5213400;28;20662;-77
2022/10/14 06:04:41;;;;;;;22.13;13.68;;;;;;;12.01;100.00;100558.44;5213252;28;20111;-77
2022/10/14 06:07:12;;;;;;;25.63;14.10;;;;;;;12.00;100.00;100548.00;5209052;28;20033;-77
2022/10/14 06:09:43;;;;;;;22.58;13.50;;;;;;;12.08;100.00;100551.16;5215849;28;20533;-77
2022/10/14 06:12:13;;;;;;;22.30;13.18;;;;;;;12.02;100.00;100547.03;5213584;28;20114;-78
2022/10/14 06:14:43;;;;;;;25.55;13.85;;;;;;;12.05;100.00;100552.16;5216882;28;20056;-77
2022/10/14 06:17:14;;;;;;;22.33;13.23;;;;;;;12.07;100.00;100549.44;5213531;28;20037;-77
2022/10/14 06:19:44;;;;;;;23.23;13.90;;;;;;;12.05;100.00;100551.28;5215184;28;20397;-78
2022/10/14 06:22:14;;;;;;;22.17;13.15;;;;;;;12.05;100.00;100556.53;5220449;28;20029;-75
2022/10/14 06:24:45;;;;;;;21.80;12.32;;;;;;;12.04;100.00;100560.94;5223815;28;20044;-77
2022/10/14 06:27:15;;;;;;;22.95;13.93;;;;;;;12.05;100.00;100557.38;5215919;28;20021;-77
2022/10/14 06:29:46;;;;;;;20.45;12.80;;;;;;;12.11;100.00;100561.53;5219825;28;20024;-77
2022/10/14 06:32:16;;;;;;;23.25;12.88;;;;;;;12.17;100.00;100556.00;5219180;28;20115;-77
2022/10/14 06:34:46;;;;;;;24.02;12.93;;;;;;;12.18;100.00;100550.72;5219028;28;20021;-77
2022/10/14 06:37:16;;;;;;;25.55;14.45;;;;;;;12.15;100.00;100555.22;5215899;28;20028;-77
2022/10/14 06:39:47;;;;;;;22.25;12.50;;;;;;;12.17;100.00;100553.41;5213023;28;20056;-77
2022/10/14 06:42:17;;;;;;;25.00;13.70;;;;;;;12.19;100.00;100556.78;5216097;28;20031;-77
2022/10/14 06:44:47;;;;;;;22.02;12.32;;;;;;;12.22;100.00;100554.91;5212940;28;20475;-78
2022/10/14 06:47:18;;;;;;;24.85;14.77;;;;;;;12.23;100.00;100556.59;5215941;28;20027;-77
2022/10/14 06:49:48;;;;;;;23.75;12.73;;;;;;;12.36;100.00;100551.69;5212241;28;20060;-77
2022/10/14 06:52:18;;;;;;;23.65;14.00;;;;;;;12.33;100.00;100555.28;5215550;28;20406;-78
2022/10/14 06:54:48;;;;;;;23.83;14.18;;;;;;;12.36;100.00;100551.69;5213020;28;20459;-77
2022/10/14 06:57:19;;;;;;;27.65;14.30;;;;;;;12.35;100.00;100560.47;5214518;28;20024;-76
2022/10/14 06:59:49;;;;;;;23.10;12.68;;;;;;;12.34;100.00;100551.78;5215685;22;20042;-73
2022/10/14 07:02:19;;;;;;;23.08;13.65;;;;;;;12.33;100.00;100554.44;5175752;28;20391;-73
2022/10/14 07:04:49;;;;;;;26.70;13.20;;;;;;;12.31;100.00;100556.28;5177840;28;20034;-73
2022/10/14 07:07:20;;;;;;;19.85;11.82;;;;;;;12.46;100.00;100558.25;5181521;28;20108;-74
2022/10/14 07:09:50;;;;;;;18.05;11.23;;;;;;;12.58;100.00;100553.31;5182013;28;20395;-73
2022/10/14 07:12:20;;;;;;;22.33;12.68;;;;;;;12.81;100.00;100550.50;5181448;28;20037;-73
2022/10/14 07:14:51;;;;;;;20.08;12.65;;;;;;;13.47;100.00;100564.03;5181473;28;20092;-73
2022/10/14 07:17:21;;;;;;;21.08;12.65;;;;;;;14.46;100.00;100552.94;5180916;28;20102;-73
2022/10/14 07:19:52;;;;;;;17.23;11.27;;;;;;;14.84;100.00;100553.50;5180979;28;20065;-75
2022/10/14 07:22:22;;;;;;;18.50;11.48;;;;;;;14.77;100.00;100553.91;5180611;28;20053;-75
2022/10/14 07:24:52;;;;;;;14.93;9.82;;;;;;;14.83;100.00;100554.41;5182306;28;20615;-73
2022/10/14 07:27:22;;;;;;;16.67;10.65;;;;;;;14.57;100.00;100561.16;5180882;28;20045;-74
2022/10/14 07:29:53;;;;;;;20.33;12.10;;;;;;;14.45;100.00;100567.03;5176628;28;20029;-74
2022/10/14 07:32:23;;;;;;;17.02;11.20;;;;;;;14.37;100.00;100559.53;5172812;28;20472;-74
2022/10/14 07:34:53;;;;;;;16.85;11.25;;;;;;;14.31;100.00;100564.25;5175163;28;20022;-73
2022/10/14 07:37:23;;;;;;;18.75;11.15;;;;;;;14.23;100.00;100566.44;5175836;28;20488;-74
2022/10/14 07:39:54;;;;;;;20.48;11.68;;;;;;;14.34;100.00;100557.06;5174189;28;20138;-73
2022/10/14 07:42:24;;;;;;;18.80;11.63;;;;;;;14.30;100.00;100555.53;5181241;28;20504;-73
2022/10/14 07:44:56;;;;;;;22.38;12.25;;;;;;;14.24;100.00;100555.00;5176782;28;20030;-73
2022/10/14 07:47:26;;;;;;;18.85;11.52;;;;;;;14.37;100.00;100554.28;5176012;28;20030;-73
2022/10/14 07:49:57;;;;;;;19.10;11.55;;;;;;;14.63;100.00;100551.13;5181051;28;20049;-73
2022/10/14 07:52:27;;;;;;;22.73;11.23;;;;;;;14.81;100.00;100554.59;5181373;28;20125;-74
2022/10/14 07:54:57;;;;;;;18.40;11.63;;;;;;;14.83;100.00;100554.41;5181405;28;20022;-73
2022/10/14 07:57:28;;;;;;;19.35;11.10;;;;;;;14.88;100.00;100559.44;5181240;28;20026;-73
2022/10/14 07:59:58;;;;;;;17.02;10.30;;;;;;;15.07;100.00;100552.25;5181012;28;20021;-73
2022/10/14 08:02:29;;;;;;;18.58;10.60;;;;;;;15.05;100.00;100549.69;5174395;28;20515;-73
2022/10/14 08:05:00;;;;;;;16.65;10.27;;;;;;;15.02;100.00;100555.13;5162806;28;20018;-74
2022/10/14 08:07:32;;;;;;;16.23;10.13;;;;;;;15.44;100.00;100544.94;5180449;28;20033;-72
2022/10/14 08:10:03;;;;;;;16.92;8.77;;;;;;;15.57;100.00;100545.09;5180972;28;20091;-72
2022/10/14 08:12:33;;;;;;;17.00;10.00;;;;;;;15.41;100.00;100555.66;5174728;28;20033;-74
2022/10/14 08:15:04;;;;;;;15.95;9.77;;;;;;;15.21;100.00;100555.00;5175545;28;20033;-73
2022/10/14 08:17:35;;;;;;;16.60;9.15;;;;;;;15.02;100.00;100557.75;5180072;28;20443;-73
2022/10/14 08:20:05;;;;;;;12.85;8.65;;;;;;;14.89;100.00;100564.63;5178856;28;20484;-73
2022/10/14 08:22:36;;;;;;;14.52;9.40;;;;;;;14.96;100.00;100558.09;5180110;28;20121;-73
2022/10/14 08:25:06;;;;;;;13.77;8.75;;;;;;;14.98;100.00;100564.13;5181184;28;20036;-73
2022/10/14 08:27:36;;;;;;;16.08;9.43;;;;;;;14.85;100.00;100565.72;5178734;28;20045;-73
2022/10/14 08:30:09;;;;;;;18.50;10.43;;;;;;;14.82;100.00;100561.56;5161891;28;20033;-73
2022/10/14 08:32:39;;;;;;;17.40;9.90;;;;;;;14.79;100.00;100557.28;5172904;28;20411;-73
2022/10/14 08:35:10;;;;;;;22.27;11.10;;;;;;;14.89;100.00;100555.88;5179333;28;20037;-73
2022/10/14 08:37:40;;;;;;;14.93;9.82;;;;;;;14.90;100.00;100550.56;5161652;28;20087;-73
2022/10/14 08:40:16;;;;;;;17.75;10.20;;;;;;;14.96;100.00;100549.34;5177041;28;20034;-73
2022/10/14 08:43:00;;;;;;;17.33;10.35;;;;;;;14.92;100.00;100551.31;5180632;28;20054;-73
2022/10/14 08:45:41;;;;;;;16.75;10.70;;;;;;;14.95;100.00;100552.91;5162383;28;20491;-73
2022/10/14 08:48:17;;;;;;;18.20;11.35;;;;;;;15.04;100.00;100548.00;5178583;28;20034;-75
2022/10/14 08:50:52;;;;;;;;;;;;;;;15.41;100.00;100541.59;5171547;28;20101;-74
2022/10/14 08:53:27;;;;;;;17.40;10.00;;;;;;;15.51;100.00;100532.28;5173395;28;19996;-74
2022/10/14 08:55:59;;;;;;;14.05;10.25;;;;;;;15.82;100.00;100540.97;5179992;28;20032;-73
2022/10/14 08:58:41;;;;;;;15.68;9.55;;;;;;;15.85;100.00;100543.44;5179306;28;20096;-73
2022/10/14 09:01:26;;;;;;;14.38;9.68;;;;;;;15.85;100.00;100539.97;5177799;28;20022;-73
2022/10/14 09:04:04;;;;;;;13.30;9.00;;;;;;;16.10;100.00;100535.81;5170538;28;20117;-75
2022/10/14 09:06:38;;;;;;;14.18;8.30;;;;;;;16.22;100.00;100529.78;5179325;28;20038;-73
2022/10/14 09:09:24;;;;;;;11.50;7.95;;;;;;;16.65;100.00;100528.97;5178309;28;20403;-73
2022/10/14 09:11:59;;;;;;;15.30;7.60;;;;;;;17.25;100.00;100523.34;5177048;28;20252;-73
2022/10/14 09:14:36;;;;;;;15.50;8.23;;;;;;;17.35;100.00;100521.00;5180409;28;20277;-73
2022/10/14 09:17:22;;;;;;;12.52;7.03;;;;;;;17.43;98.62;100510.75;5179518;28;20515;-73
2022/10/14 09:20:04;;;;;;;;;;;;;;;17.03;100.00;100514.22;5176982;28;20077;-73
2022/10/14 09:22:34;;;;;;;10.88;6.72;;;;;;;17.29;97.07;100513.44;5175020;28;19917;-74
2022/10/14 09:25:12;;;;;;;10.40;6.65;;;;;;;17.01;99.90;100518.75;5179606;28;20036;-73
2022/10/14 09:27:42;;;;;;;11.50;6.63;;;;;;;17.62;97.01;100506.84;5179136;28;20083;-74
2022/10/14 09:30:15;;;;;;;10.60;6.57;;;;;;;17.41;98.17;100515.31;5161372;28;20495;-73
2022/10/14 09:32:50;;;;;;;12.13;6.45;;;;;;;17.23;98.53;100508.53;5168623;28;20116;-74
2022/10/14 09:35:36;;;;;;;10.27;6.78;;;;;;;16.67;100.00;100516.50;5178700;28;20033;-74
2022/10/14 09:38:07;;;;;;;10.07;5.95;;;;;;;16.86;100.00;100512.66;5161384;28;20026;-73
2022/10/14 09:40:47;;;;;;;8.60;6.18;;;;;;;16.82;100.00;100518.22;5179327;28;20499;-74
2022/10/14 09:43:20;;;;;;;10.48;6.20;;;;;;;16.62;100.00;100515.94;5175298;28;20510;-74
2022/10/14 09:46:00;;;;;;;8.57;5.50;;;;;;;16.56;100.00;100513.66;5179229;28;20030;-74
2022/10/14 09:48:36;;;;;;;8.05;5.47;;;;;;;16.56;100.00;100511.03;5178925;28;20060;-74
2022/10/14 09:51:16;;;;;;;;;;;;;;;16.54;100.00;100509.44;5180170;28;20462;-74
2022/10/14 09:53:51;;;;;;;7.30;4.18;;;;;;;16.53;100.00;100510.38;5161919;28;19913;-74
2022/10/14 09:56:41;;;;;;;5.63;3.42;;;;;;;16.54;99.59;100504.16;5178853;28;20404;-73
2022/10/14 09:59:21;;;;;;;4.93;3.13;;;;;;;16.62;100.00;100501.91;5178472;28;20044;-74
2022/10/14 10:01:54;;;;;;;3.97;2.75;;;;;;;16.61;98.39;100500.19;5169481;28;20037;-74
2022/10/14 10:04:30;;;;;;;7.05;3.13;;;;;;;16.61;100.00;100501.06;5172032;28;20057;-75
2022/10/14 10:07:04;;;;;;;5.60;3.60;;;;;;;16.83;100.00;100499.63;5178246;28;20108;-74
2022/10/14 10:09:35;;;;;;;5.75;3.20;;;;;;;16.85;99.58;100491.63;5178417;28;20426;-74
2022/10/14 10:12:22;;;;;;;5.68;3.72;;;;;;;16.87;98.50;100487.09;5179110;28;20041;-76
2022/10/14 10:15:02;;;;;;;7.00;4.03;;;;;;;16.70;99.66;100483.81;5176191;28;20014;-74
2022/10/14 10:17:37;;;;;;;5.82;3.72;;;;;;;17.14;98.58;100472.97;5168421;28;20108;-74
2022/10/14 10:20:19;;;;;;;8.30;4.18;;;;;;;17.05;97.43;100478.00;5175096;28;20496;-75
2022/10/14 10:22:50;;;;;;;6.30;3.90;;;;;;;17.09;98.99;100468.94;5174164;28;20491;-75
2022/10/14 10:25:25;;;;;;;6.70;3.90;;;;;;;17.22;98.33;100470.72;5178846;28;20029;-75
2022/10/14 10:27:58;;;;;;;6.30;3.92;;;;;;;17.22;98.55;100465.44;5177963;28;20149;-74
2022/10/14 10:30:35;;;;;;;8.02;4.40;;;;;;;17.10;97.73;100455.66;5178698;28;20495;-74
2022/10/14 10:33:32;;;;;;;6.03;3.75;;;;;;;17.31;98.26;100453.41;5171052;28;20115;-74
2022/10/14 10:36:52;;;;;;;8.35;4.05;;;;;;;17.48;97.81;100447.91;5171211;28;20022;-75
2022/10/14 10:39:43;;;;;;;6.07;3.63;;;;;;;17.56;96.84;100443.81;5101144;29;20035;-74
2022/10/14 10:42:24;;;;;;;5.43;3.47;;;;;;;17.45;93.34;100446.31;5178724;28;20026;-74
2022/10/14 10:44:56;;;;;;;4.82;3.53;;;;;;;17.42;94.69;100440.38;5175843;28;20484;-76
2022/10/14 10:47:34;;;;;;;6.47;3.88;;;;;;;17.58;94.73;100430.50;5178671;28;20388;-74
2022/10/14 10:50:26;;;;;;;7.68;2.92;;;;;;;17.62;94.92;100437.28;5158498;28;20069;-75
2022/10/14 10:53:28;;;;;;;5.53;3.10;;;;;;;17.41;97.08;100433.41;5172603;28;20092;-75
2022/10/14 10:56:15;;;;;;;6.13;2.70;;;;;;;17.28;96.12;100433.31;5177179;28;20028;-75
2022/10/14 10:59:00;;;;;;;8.93;2.83;;;;;;;17.41;95.45;100420.19;5181734;28;20454;-74
2022/10/14 11:01:57;;;;;;;3.55;2.20;;;;;;;17.57;96.46;100423.50;5178542;28;20038;-75
2022/10/14 11:05:08;;;;;;;3.05;1.73;;;;;;;17.83;95.41;100414.69;5179949;28;20040;-74
2022/10/14 11:14:27;;;;;;;2.42;1.65;;;;;;;17.88;93.21;100409.94;5175867;28;20525;-74
2022/10/14 11:17:23;;;;;;;3.63;1.90;;;;;;;17.91;92.49;100412.34;5178759;28;20041;-75
2022/10/14 11:20:03;;;;;;;2.58;1.50;;;;;;;17.73;92.02;100403.03;5161429;28;20511;-75
2022/10/14 11:22:33;;;;;;;3.55;1.48;;;;;;;17.72;92.53;100401.34;5182172;28;20049;-74
2022/10/14 11:25:37;;;;;;;4.97;1.50;;;;;;;17.63;91.52;100402.81;5181720;28;20030;-74
2022/10/14 11:28:15;;;;;;;3.15;1.40;;;;;;;17.61;92.34;100398.56;5180061;28;21056;-75
2022/10/14 11:31:13;;;;;;;2.50;1.30;;;;;;;17.58;94.05;100394.34;5177326;28;20574;-74
2022/10/14 11:34:02;;;;;;;2.60;1.38;;;;;;;17.52;94.28;100389.44;5176061;28;20022;-75
2022/10/14 11:36:54;;;;;;;3.13;1.30;;;;;;;17.71;94.27;100383.78;5179999;28;20034;-75
2022/10/14 11:39:41;;;;;;;1.63;1.05;;;;;;;17.45;93.17;100376.78;5178463;28;20057;-75
2022/10/14 11:42:26;;;;;;;2.90;1.33;;;;;;;17.78;91.61;100377.97;5181433;28;20034;-75
2022/10/14 11:45:17;;;;;;;3.45;1.15;;;;;;;17.81;93.08;100374.28;5178844;28;20026;-75
2022/10/14 11:47:51;;;;;;;2.08;1.20;;;;;;;17.91;92.42;100364.75;5134281;28;20073;-75
2022/10/14 11:50:32;;;;;;;4.13;1.30;;;;;;;18.04;91.06;100366.44;5179453;28;20041;-75
2022/10/14 11:53:42;;;;;;;2.63;1.20;;;;;;;18.13;88.52;100362.31;5159260;28;20109;-75
2022/10/14 11:56:28;;;;;;;3.67;1.20;;;;;;;17.86;90.29;100366.88;5180646;28;20208;-74